Time;durP1;ratioP1;P1;durP2;ratioP2;P2;SDS_P1;SDS_P2;PMS_P1;PMS_P2;Temp;Humidity;BMP_temperature;BMP_pressure;BME280_temperature;BME280_humidity;BME280_pressure;Samples;Min_cycle;Max_cycle;Signal;HPM_P1;HPM_P2
2022/12/16 00:02:24;;;;;;;;;;;;;;;-3.37;84.14;100942.78;5088711;28;20379;-56
2022/12/16 00:04:49;;;;;;;;;;;;;;;-3.35;84.07;100946.97;5086600;28;19916;-56
2022/12/16 00:07:15;;;;;;;;;;;;;;;-3.31;84.03;100951.09;5086044;28;19912;-56
2022/12/16 00:09:40;;;;;;;;;;;;;;;-3.27;84.04;100952.59;5095585;28;19919;-59
2022/12/16 00:12:05;;;;;;;;;;;;;;;-3.22;84.04;100962.75;5093399;28;20391;-56
2022/12/16 00:14:30;;;;;;;;;;;;;;;-3.20;84.14;100961.75;5090510;28;19959;-56
2022/12/16 00:16:55;;;;;;;;;;;;;;;-3.15;84.09;100961.53;5079692;28;19935;-54
2022/12/16 00:19:21;;;;;;;;;;;;;;;-3.10;84.31;100958.69;5088415;28;19926;-57
2022/12/16 00:21:46;;;;;;;;;;;;;;;-3.07;84.38;100946.38;5085903;28;19928;-56
2022/12/16 00:24:11;;;;;;;;;;;;;;;-3.00;84.25;100947.72;5097763;28;20482;-58
2022/12/16 00:26:36;;;;;;;;;;;;;;;-2.95;84.33;100953.50;5091810;28;19933;-56
2022/12/16 00:29:04;;;;;;;;;;;;;;;-2.88;84.42;100951.44;5088417;28;19920;-60
2022/12/16 00:31:29;;;;;;;;;;;;;;;-2.83;84.53;100947.66;5080760;28;19943;-57
2022/12/16 00:33:55;;;;;;;;;;;;;;;-2.77;84.57;100946.50;5087260;28;19916;-56
2022/12/16 00:36:20;;;;;;;;;;;;;;;-2.71;84.77;100943.56;5084581;28;19924;-56
2022/12/16 00:38:45;;;;;;;;;;;;;;;-2.66;84.62;100957.13;5084203;28;19923;-59
2022/12/16 00:41:10;;;;;;;;;;;;;;;-2.61;84.77;100954.28;5082846;28;19921;-56
2022/12/16 00:43:36;;;;;;;;;;;;;;;-2.56;84.73;100954.91;5088005;28;20367;-56
2022/12/16 00:46:01;;;;;;;;;;;;;;;-2.52;84.65;100956.41;5084474;28;19920;-59
2022/12/16 00:48:26;;;;;;;;;;;;;;;-2.47;84.85;100956.13;5085994;28;20459;-58
2022/12/16 00:50:52;;;;;;;;;;;;;;;-2.43;84.94;100971.47;5091151;28;19975;-58
2022/12/16 00:53:18;;;;;;;;;;;;;;;-2.41;84.85;100953.19;5087906;28;19916;-55
2022/12/16 00:55:43;;;;;;;;;;;;;;;-2.39;84.92;100949.59;5086008;28;20417;-60
2022/12/16 00:58:08;;;;;;;;;;;;;;;-2.39;85.07;100951.34;5088101;28;19917;-56
2022/12/16 01:00:34;;;;;;;;;;;;;;;-2.38;85.19;100959.06;5081768;28;19920;-58
2022/12/16 01:02:59;;;;;;;;;;;;;;;-2.37;85.16;100959.91;5089208;28;19939;-56
2022/12/16 01:05:25;;;;;;;;;;;;;;;-2.35;85.24;100955.44;5084080;28;19920;-56
2022/12/16 01:07:51;;;;;;;;;;;;;;;-2.34;85.37;100955.34;5083926;28;19916;-57
2022/12/16 01:10:16;;;;;;;;;;;;;;;-2.34;85.34;100955.34;5083895;28;19924;-58
2022/12/16 01:12:41;;;;;;;;;;;;;;;-2.34;85.37;100957.97;5077827;28;19928;-57
2022/12/16 01:15:07;;;;;;;;;;;;;;;-2.33;85.43;100972.63;5084140;28;19920;-58
2022/12/16 01:17:33;;;;;;;;;;;;;;;-2.32;85.43;100969.13;5084431;28;20300;-58
2022/12/16 01:19:59;;;;;;;;;;;;;;;-2.31;85.50;100976.03;5084784;28;19920;-58
2022/12/16 01:22:25;;;;;;;;;;;;;;;-2.32;85.67;100979.53;5083910;28;19920;-59
2022/12/16 01:24:50;;;;;;;;;;;;;;;-2.33;85.60;100980.44;5082779;28;19985;-59
2022/12/16 01:27:16;;;;;;;;;;;;;;;-2.34;85.57;100980.53;5081271;28;19920;-57
2022/12/16 01:29:41;;;;;;;;;;;;;;;-2.34;85.49;100980.53;5080385;28;19930;-57
2022/12/16 01:32:08;;;;;;;;;;;;;;;-2.34;85.55;100989.16;5086056;28;19920;-58
2022/12/16 01:34:33;;;;;;;;;;;;;;;-2.33;85.60;100988.25;5080971;28;19920;-57
2022/12/16 01:36:58;;;;;;;;;;;;;;;-2.32;85.79;101000.31;5083829;28;19939;-59
2022/12/16 01:39:26;;;;;;;;;;;;;;;-2.29;86.05;100997.59;5081053;28;19997;-59
2022/12/16 01:41:51;;;;;;;;;;;;;;;-2.28;86.28;100991.47;5080888;28;19970;-59
2022/12/16 01:44:18;;;;;;;;;;;;;;;-2.31;86.43;101004.63;5083083;28;20408;-57
2022/12/16 01:46:52;;;;;;;;;;;;;;;-2.29;86.40;101005.38;5084573;28;20299;-60
2022/12/16 01:49:24;;;;;;;;;;;;;;;-2.29;86.37;101002.78;5080665;28;19924;-56
2022/12/16 01:51:49;;;;;;;;;;;;;;;-2.30;86.51;101008.06;5082620;28;20407;-56
2022/12/16 01:54:23;;;;;;;;;;;;;;;-2.30;86.40;101014.13;5080049;28;19949;-59
2022/12/16 01:56:51;;;;;;;;;;;;;;;-2.26;86.38;101009.56;5078581;28;19931;-56
2022/12/16 01:59:17;;;;;;;;;;;;;;;-2.23;86.29;101012.84;5077679;28;20301;-59
2022/12/16 02:01:42;;;;;;;;;;;;;;;-2.20;86.32;101014.44;5083784;28;20379;-57
2022/12/16 02:04:07;;;;;;;;;;;;;;;-2.19;86.41;101014.34;5079696;28;20428;-59
2022/12/16 02:06:33;;;;;;;;;;;;;;;-2.14;86.52;101018.44;5083820;28;19916;-59
2022/12/16 02:09:01;;;;;;;;;;;;;;;-2.11;86.37;101024.31;5081552;28;19932;-59
2022/12/16 02:11:45;;;;;;;;;;;;;;;-2.09;86.46;101021.63;5083029;28;20311;-58
2022/12/16 02:14:22;;;;;;;;;;;;;;;-2.07;86.49;101030.19;5082728;28;19920;-58
2022/12/16 02:16:57;;;;;;;;;;;;;;;-2.04;86.52;101030.00;5078601;28;19924;-57
2022/12/16 02:19:28;;;;;;;;;;;;;;;-2.01;86.44;101035.06;5074232;28;19920;-59
2022/12/16 02:22:05;;;;;;;;;;;;;;;-2.00;86.43;101027.19;5081825;28;19931;-57
2022/12/16 02:24:45;;;;;;;;;;;;;;;-1.97;86.44;101029.59;5081327;28;19924;-59
2022/12/16 02:27:26;;;;;;;;;;;;;;;-1.95;86.36;101034.72;5085121;28;19916;-58
2022/12/16 02:30:00;;;;;;;;;;;;;;;-1.93;86.39;101032.88;5082877;28;19938;-56
2022/12/16 02:32:26;;;;;;;;;;;;;;;-1.91;86.60;101020.63;5087567;28;19926;-60
2022/12/16 02:35:09;;;;;;;;;;;;;;;-1.89;86.39;101030.00;5083080;28;19920;-58
2022/12/16 02:37:47;;;;;;;;;;;;;;;-1.84;86.36;101034.94;5085500;28;19924;-61
2022/12/16 02:40:20;;;;;;;;;;;;;;;-1.82;86.25;101045.28;5079317;28;19916;-59
2022/12/16 02:42:59;;;;;;;;;;;;;;;-1.81;86.42;101036.53;5081465;28;20397;-57
2022/12/16 02:45:27;;;;;;;;;;;;;;;-1.83;86.26;101044.44;5082392;28;19920;-60
2022/12/16 02:47:52;;;;;;;;;;;;;;;-1.82;86.44;101043.50;5079293;28;20414;-59
2022/12/16 02:50:20;;;;;;;;;;;;;;;-1.80;86.30;101048.63;5078443;28;19924;-58
2022/12/16 02:52:46;;;;;;;;;;;;;;;-1.78;86.29;101045.00;5080530;28;20396;-60
2022/12/16 02:55:11;;;;;;;;;;;;;;;-1.76;86.37;101045.75;5083322;28;19927;-59
2022/12/16 02:57:37;;;;;;;;;;;;;;;-1.76;86.47;101043.16;5079851;28;20015;-59
2022/12/16 03:00:05;;;;;;;;;;;;;;;-1.73;86.69;101047.38;5083820;28;19963;-57
2022/12/16 03:02:44;;;;;;;;;;;;;;;-1.72;86.59;101043.84;5082321;28;19912;-59
2022/12/16 03:05:14;;;;;;;;;;;;;;;-1.71;86.57;101051.56;5079803;28;19951;-57
2022/12/16 03:07:40;;;;;;;;;;;;;;;-1.69;86.68;101048.88;5079482;28;20300;-57
2022/12/16 03:10:07;;;;;;;;;;;;;;;-1.67;86.62;101054.84;5093847;28;19916;-59
2022/12/16 03:12:32;;;;;;;;;;;;;;;-1.65;86.81;101042.56;5076912;28;19934;-59
2022/12/16 03:14:58;;;;;;;;;;;;;;;-1.67;86.71;101040.06;5082622;28;20372;-59
2022/12/16 03:17:23;;;;;;;;;;;;;;;-1.64;86.71;101044.25;5085329;28;19912;-59
2022/12/16 03:20:18;;;;;;;;;;;;;;;-1.62;86.63;101045.84;5082759;28;19916;-59
2022/12/16 03:22:45;;;;;;;;;;;;;;;-1.58;86.69;101055.13;5082304;28;19929;-57
2022/12/16 03:25:10;;;;;;;;;;;;;;;-1.54;86.65;101058.41;5084340;28;19916;-57
2022/12/16 03:27:45;;;;;;;;;;;;;;;-1.52;86.57;101059.16;5082167;28;19912;-58
2022/12/16 03:30:18;;;;;;;;;;;;;;;-1.49;86.55;101060.75;5079414;28;19923;-58
2022/12/16 03:32:55;;;;;;;;;;;;;;;-1.49;86.59;101058.97;5084967;28;19919;-59
2022/12/16 03:35:23;;;;;;;;;;;;;;;-1.46;86.50;101060.56;5080174;28;19946;-58
2022/12/16 03:37:50;;;;;;;;;;;;;;;-1.44;86.67;101070.00;5083048;28;19944;-59
2022/12/16 03:40:16;;;;;;;;;;;;;;;-1.47;86.53;101066.69;5078173;28;20371;-58
2022/12/16 03:42:42;;;;;;;;;;;;;;;-1.42;86.95;101081.16;5077905;28;20380;-60
2022/12/16 03:45:11;;;;;;;;;;;;;;;-1.40;86.83;101083.69;5086200;28;19954;-58
2022/12/16 03:47:36;;;;;;;;;;;;;;;-1.40;86.72;101087.13;5083608;28;20415;-56
2022/12/16 03:50:01;;;;;;;;;;;;;;;-1.40;86.72;101083.69;5085479;28;19958;-58
2022/12/16 03:52:26;;;;;;;;;;;;;;;-1.40;86.74;101091.50;5093918;28;19924;-56
2022/12/16 03:54:52;;;;;;;;;;;;;;;-1.40;86.72;101097.53;5086843;28;19920;-58
2022/12/16 03:57:17;;;;;;;;;;;;;;;-1.39;86.79;101095.78;5085618;28;19924;-57
2022/12/16 03:59:42;;;;;;;;;;;;;;;-1.38;86.91;101094.84;5090219;28;19916;-59
2022/12/16 04:02:07;;;;;;;;;;;;;;;-1.39;86.76;101101.81;5086748;28;19925;-56
2022/12/16 04:04:32;;;;;;;;;;;;;;;-1.38;86.80;101100.88;5085994;28;20019;-59
2022/12/16 04:09:41;;;;;;;;;;;;;;;-1.33;86.82;101111.88;5090043;28;20449;-56
2022/12/16 04:25:52;;;;;;;;;;;;;;;-1.27;87.06;101127.16;5086335;28;19962;-56
2022/12/16 04:28:17;;;;;;;;;;;;;;;-1.27;86.99;101124.53;5086872;28;19920;-58
2022/12/16 04:30:42;;;;;;;;;;;;;;;-1.26;87.01;101133.19;5090819;28;19912;-56
